Weather observations for the past three days for
Rowan County Airport
Metric (Imperial)
Date Time (edt) Wind (kph) Vis. (km) Weather Sky Cond. Temperature (ºC) Relative Humidity Wind Chill (°C) Heat Index (°C) Pressure Precipitation (cm)
Air Dwpt 6 hour altimeter (cm) sea level (mb) 1 hr 3 hr 6 hr
Max. Min.
05 02:35 S 11 16.09 Fair CLR 15.4 6.5 56% 76.12 0.0
05 02:15 S 13 16.09 Fair CLR 15.7 6.1 53% 76.12 0.0
05 01:55 S 15 16.09 Fair CLR 15.7 5.4 22 15 51% 76.12 0.0
05 01:35 S 13 16.09 Fair CLR 15.5 4.9 49% 76.12 0.0
05 01:15 S 15 16.09 Fair CLR 15.8 4.7 48% 76.12 0.0
05 00:55 S 13 16.09 Fair CLR 15.6 4.2 47% 76.15 0.0
05 00:35 S 11 16.09 Fair CLR 16.5 4 44% 76.12 0.0
05 00:15 S 11 16.09 Fair CLR 16.5 3.8 43% 76.15 0.0
04 23:55 S 11 16.09 Fair CLR 16.6 3.5 42% 76.15 0.0
04 23:35 S 6 16.09 Fair CLR 16.6 3.6 42% 76.15 0.0
04 23:15 S 9 16.09 Fair CLR 16.6 3.7 42% 76.15 0.0
04 22:55 S 11 16.09 Fair CLR 17.1 3.8 41% 76.15 0.0
04 22:35 S 7 16.09 Fair CLR 17.4 3.8 41% 76.12 0.0
04 22:15 S 7 16.09 Fair CLR 17.9 3.7 39% 76.12 0.0
04 21:55 S 6 16.09 Fair CLR 17.4 3.8 41% 76.12 0.0
04 21:35 S 7 16.09 Fair CLR 17.4 3.6 40% 76.12 0.0
04 21:15 S 6 16.09 Fair CLR 17.4 3.8 41% 76.1 0.0
04 20:55 Calm 16.09 Fair CLR 16.7 4.9 46% 76.07 0.0
04 20:35 Calm 16.09 Fair CLR 19.5 3.1 34% 76.07 0.0
04 20:15 S 6 16.09 Fair CLR 20.8 2.6 30% 76.05 0.0
04 19:55 S 7 16.09 Fair CLR 22 2.7 25.9 22 28% 76.05 0.0
04 19:35 S 11 16.09 Fair CLR 23.2 2.7 26% 76.02 0.0
04 19:15 S 15 16.09 Fair CLR 24 2.1 24% 25 76.02 0.0
04 18:55 S 13 16.09 Fair CLR 24.4 1.6 22% 25 76 0.0
04 18:35 S 19 16.09 Fair CLR 25 1.6 22% 25 76.02 0.0
04 18:15 S 15 16.09 Fair CLR 25.2 2.7 23% 25 76.02 0.0
04 17:55 S 13 16.09 Fair CLR 25.3 3.5 24% 25 76.02 0.0
04 17:35 SW 15 16.09 Fair CLR 25.3 3.4 24% 25 76.02 0.0
04 17:15 SW 15 16.09 Fair CLR 25.8 3.9 24% 26 76.02 0.0
04 16:55 S 13 16.09 Fair CLR 25.6 3.5 24% 25 76.05 0.0
04 16:35 SW 9 16.09 Fair CLR 25.5 3.7 24% 25 76.05 0.0
04 16:15 S 13 16.09 Fair CLR 25.4 3 23% 25 76.07 0.0
04 15:55 SW 6 16.09 Fair CLR 25 3.1 24% 25 76.07 0.0
04 15:35 S 11 16.09 Fair CLR 24.7 2.5 24% 25 76.1 0.0
04 15:15 SW 13 16.09 Fair CLR 24.6 3 25% 25 76.12 0.0
04 14:55 SW 9 16.09 Fair CLR 24.5 3.8 26% 25 76.12 0.0
04 14:35 W 9 16.09 Fair CLR 23.9 3.5 27% 25 76.15 0.0
04 14:15 W 9 16.09 Fair CLR 23.2 3.2 27% 76.17 0.0
04 13:55 SW 6 16.09 Fair CLR 23.9 3.7 23.9 7.6 27% 25 76.17 0.0
04 13:35 W 7 16.09 Fair CLR 23.2 3.5 28% 76.17 0.0
04 13:15 S 6 16.09 Fair CLR 22.8 3.9 29% 76.2 0.0
04 12:55 W 6 16.09 Fair CLR 22.2 3.9 30% 76.23 0.0
04 12:35 Calm 16.09 Fair CLR 21.5 3.8 31% 76.25 0.0
04 12:15 S 9 16.09 Fair CLR 21.1 3.4 31% 76.3 0.0
04 11:55 W 13 16.09 Fair CLR 20.9 3.9 33% 76.33 0.0
04 11:35 W 13 16.09 Fair CLR 20.3 3.7 34% 76.35 0.0
04 11:15 W 9 16.09 Fair CLR 19.8 4.3 36% 76.33 0.0
04 10:55 SW 9 16.09 Fair CLR 19.4 5.9 41% 76.33 0.0
04 10:35 NW 7 16.09 Fair CLR 18 5.8 45% 76.33 0.0
04 10:15 Calm 16.09 Fair CLR 17 6.6 51% 76.33 0.0
04 09:55 Calm 16.09 Fair CLR 16 6.7 54% 76.33 0.0
04 09:35 Calm 16.09 Fair CLR 15.1 6.5 57% 76.3 0.0
04 09:15 W 6 16.09 Fair CLR 13.4 6.4 63% 76.33 0.0
04 08:55 Calm 16.09 Fair CLR 12.3 6.2 67% 76.33 0.0
04 08:35 Calm 16.09 Fair CLR 11.4 5.8 69% 76.33 0.0
04 08:15 Calm 16.09 Fair CLR 8.8 5.8 82% 76.3 0.0
04 07:55 Calm 16.09 Fair CLR 7.4 5.6 7.4 3.5 88% 76.3 0.0
04 07:35 Calm 11.27 Fair CLR 5.8 4.6 92% 76.28 0.0
04 07:15 Calm 16.09 Fair CLR 4.7 3.9 95% 76.3 0.0
04 06:55 Calm 4.83 Fog/Mist CLR 4 3.4 96% 76.3 0.0
04 06:35 Calm 8.05 Fog/Mist CLR 3.5 2.5 93% 76.3 0.0
04 06:15 Calm 16.09 Fair CLR 4.3 3.2 93% 76.28 0.0
04 05:55 Calm 11.27 Fair CLR 4 3.2 95% 76.3 0.0
04 05:15 Calm 16.09 Fair CLR 4.9 4 94% 76.3 0.0
04 04:55 Calm 16.09 Fair CLR 4.7 3.5 92% 76.3 0.0
04 04:35 Calm 16.09 Fair CLR 6 3.8 86% 76.28 0.0
04 04:15 Calm 16.09 Fair CLR 5.7 4 89% 76.28 0.0
04 03:55 Calm 16.09 Fair CLR 6.3 4.6 89% 76.25 0.0
04 03:35 Calm 16.09 Fair CLR 5.8 4.1 89% 76.25 0.0
04 03:15 Calm 16.09 Fair CLR 6.1 4.3 88% 76.25 0.0
04 02:55 Calm 16.09 Fair CLR 6.2 4.3 88% 76.28 0.0
04 02:35 Calm 16.09 Fair CLR 6.5 4.4 87% 76.28 0.0
04 02:15 S 6 16.09 Fair CLR 6.7 4.3 85% 76.28 0.0
04 01:55 S 6 16.09 Fair CLR 7.4 4.6 15.2 7.2 83% 76.28 0.0
04 01:35 S 6 16.09 Fair CLR 8.4 4.4 76% 76.28 0.0
04 01:15 S 9 16.09 Fair CLR 11.9 3.7 58% 76.28 0.0
04 00:55 S 11 16.09 Fair CLR 11.5 3.7 59% 76.28 0.0
04 00:35 S 9 16.09 Fair CLR 11.4 3.5 59% 76.28 0.0
04 00:15 S 11 16.09 Fair CLR 11 3.5 60% 76.28 0.0
03 23:55 S 9 16.09 Fair CLR 9.8 3.3 64% 9 76.3 0.0
03 23:35 S 7 16.09 Fair CLR 7.8 3.5 75% 7 76.3 0.0
03 23:15 S 6 16.09 Fair CLR 7.4 3.5 77% 76.3 0.0
03 22:55 Calm 16.09 Fair CLR 8.1 4 76% 76.3 0.0
03 22:35 Calm 16.09 Fair CLR 8.3 3.7 73% 76.28 0.0
03 22:15 Calm 16.09 Fair CLR 8.8 3.5 70% 76.28 0.0
03 21:55 Calm 16.09 Fair CLR 9.9 3 63% 76.25 0.0
03 21:35 Calm 16.09 Fair CLR 9.7 3.3 65% 76.25 0.0
03 21:15 Calm 16.09 Fair CLR 11.1 3.1 58% 76.23 0.0
03 20:55 Calm 16.09 Fair CLR 11.4 3.2 57% 76.2 0.0
03 20:35 Calm 16.09 Fair CLR 13.2 2.5 49% 76.2 0.0
03 20:15 S 6 16.09 Fair CLR 13.9 2.3 46% 76.2 0.0
03 19:55 Calm 16.09 Fair CLR 15.7 2.1 19.3 15.7 40% 76.17 0.0
03 19:35 Calm 16.09 Fair CLR 17.6 0.5 32% 76.17 0.0
03 19:15 SW 7 16.09 Fair CLR 18.3 0.2 30% 76.17 0.0
03 18:55 S 7 16.09 Fair CLR 18.6 -0.2 28% 76.2 0.0
03 18:35 Calm 16.09 Fair CLR 18.8 0.2 29% 76.2 0.0
03 18:15 W 15 16.09 Fair CLR 19 -0.3 27% 76.2 0.0
03 17:55 W 13 16.09 Fair CLR 19.2 -0.9 26% 76.23 0.0
03 17:35 W 7 16.09 Fair CLR 19 -1.2 26% 76.25 0.0
03 17:15 NW 13 16.09 Fair CLR 18.8 -1.2 26% 76.25 0.0
03 16:55 W 11 16.09 Fair CLR 18.8 -1.5 25% 76.25 0.0
03 16:35 W 19 G 26 16.09 Fair CLR 18.9 -1.1 26% 76.28 0.0
03 16:15 W 9 16.09 Fair CLR 18.1 -2 26% 76.28 0.0
03 15:55 SW 15 16.09 Fair CLR 18.6 -2.2 24% 76.33 0.0
03 15:35 W 11 16.09 Fair CLR 17.9 -1.8 26% 76.33 0.0
03 15:15 SW 9 16.09 Fair CLR 17.9 -1.7 26% 76.35 0.0
03 14:35 W 9 16.09 Fair CLR 17.4 -1.5 28% 76.4 0.0
03 14:15 SW 15 16.09 Fair CLR 16.8 -1.8 28% 76.43 0.0
03 13:55 Calm 16.09 Fair CLR 16.1 -2.2 16.1 5.3 29% 76.43 0.0
03 13:35 Calm 16.09 Fair CLR 15.6 -2.1 30% 76.45 0.0
03 13:15 NW 9 G 28 16.09 Fair CLR 15.3 -1.9 31% 76.48 0.0
03 12:55 W 9 16.09 Fair CLR 15.2 -0.9 33% 76.5 0.0
03 12:35 NW 19 16.09 Fair CLR 14.8 -1.5 33% 76.5 0.0
03 12:15 NW 11 G 17 16.09 Fair CLR 14.3 -1.9 33% 76.53 0.0
03 11:55 NW 17 16.09 Fair CLR 13.8 -2.2 33% 76.53 0.0
03 11:35 NW 11 16.09 Fair CLR 14 -2.2 33% 76.56 0.0
03 11:15 N 28 G 35 16.09 Fair CLR 13.3 -3.6 31% 76.56 0.0
03 10:55 N 20 16.09 Fair CLR 12.9 -2.5 34% 76.58 0.0
03 10:35 NW 13 16.09 Fair CLR 12.7 -1.8 37% 76.56 0.0
03 10:15 NW 20 G 30 16.09 Fair CLR 12.5 -1.8 37% 76.56 0.0
03 09:55 N 19 G 30 16.09 Fair CLR 12 -2.1 38% 76.56 0.0
03 09:35 NW 22 G 33 16.09 Fair CLR 11.5 -1.7 40% 76.53 0.0
03 09:15 NW 13 16.09 Fair CLR 11 0.3 48% 76.53 0.0
03 08:35 NW 7 16.09 Fair CLR 9.1 2.1 62% 8 76.53 0.0
03 08:15 NW 6 16.09 Fair CLR 7.4 2 69% 76.5 0.0
03 07:55 Calm 16.09 Fair CLR 5.1 2.6 5.1 0.5 84% 76.5 0.0
03 07:35 Calm 16.09 Fair CLR 2.9 1.9 93% 76.5 0.0
03 07:15 Calm 16.09 Fair CLR 1.5 0.7 94% 76.48 0.0
03 06:55 Calm 16.09 Fair CLR 1.8 1.3 97% 76.45 0.0
03 06:35 Calm 16.09 Fair CLR 0.7 0.1 96% 76.43 0.0
03 06:15 Calm 11.27 Fair CLR 0.7 0.1 96% 76.4 0.0
03 05:55 Calm 16.09 Fair CLR 1.1 0.5 96% 76.38 0.0
03 05:35 Calm 16.09 Fair CLR 0.7 0 95% 76.35 0.0
03 05:15 Calm 16.09 Fair CLR 1.8 1.3 97% 76.35 0.0
03 04:55 Calm 16.09 Fair CLR 1.3 0.7 96% 76.33 0.0
03 04:35 Calm 16.09 Fair CLR 1.6 1 96% 76.33 0.0
03 04:15 Calm 11.27 Fair CLR 1.7 1.1 96% 76.33 0.0
03 03:55 Calm 16.09 Fair CLR 2.2 1.5 95% 76.3 0.0
03 03:35 Calm 16.09 Fair CLR 2.3 1.6 95% 76.3 0.0
03 03:15 Calm 16.09 Fair CLR 2.3 1.5 95% 76.28 0.0
03 02:55 Calm 16.09 Fair CLR 2.6 1.8 95% 76.25 0.0
03 02:35 Calm 16.09 Fair CLR 3.2 2.4 95% 76.25 0.0
03 02:15 Calm 16.09 Fair CLR 2.9 2 94% 76.23 0.0
03 01:55 Calm 16.09 Fair CLR 3.2 2.2 13 3.2 93% 76.23 0.0
03 01:35 Calm 16.09 Fair CLR 3.9 3.2 95% 76.23 0.0
03 01:15 Calm 16.09 Fair CLR 4.2 3.2 93% 76.23 0.0
03 00:55 Calm 16.09 Fair CLR 4 3 93% 76.23 0.0
03 00:35 Calm 16.09 Fair CLR 4 2.8 92% 76.23 0.0
03 00:15 Calm 16.09 Fair CLR 5 3.5 90% 76.2 0.0
02 23:55 Calm 16.09 Fair CLR 4.8 3.5 91% 76.2 0.0
02 23:35 Calm 16.09 Partly Cloudy SCT110 5.6 4 90% 76.17 0.0
02 23:15 Calm 16.09 Partly Cloudy SCT110 5.6 3.7 88% 76.17 0.0
02 22:55 Calm 16.09 Fair CLR 6.9 3.7 80% 76.17 0.0
02 22:35 Calm 16.09 Fair CLR 6.8 3.7 81% 76.17 0.0
02 22:15 Calm 16.09 Fair CLR 7.6 4.7 82% 76.15 0.0
02 21:55 Calm 16.09 Fair CLR 7.1 4.5 84% 76.12 0.0
02 21:35 Calm 16.09 Fair CLR 8 4.3 78% 76.1 0.0
02 21:15 Calm 16.09 Partly Cloudy SCT100 8.5 4.7 77% 76.07 0.0
02 20:55 Calm 16.09 Partly Cloudy SCT100 10.5 3.7 63% 76.05 0.0
02 20:35 Calm 16.09 Mostly Cloudy SCT085 BKN100 9.8 5.1 73% 76.02 0.0
02 20:15 Calm 16.09 Overcast SCT070 OVC085 11.4 3.9 60% 76 0.0
02 19:35 SE 6 16.09 Partly Cloudy SCT085 13.3 1.9 46% 75.95 0.0
02 19:15 Calm 16.09 Partly Cloudy SCT085 13.7 1.9 45% 75.95 0.0
02 18:55 Calm 16.09 Fair CLR 15.2 0.2 36% 75.92 0.0
02 18:35 SE 6 16.09 Fair CLR 16 0 34% 75.92 0.0
02 18:15 NE 7 16.09 Fair CLR 16.3 0.4 34% 75.9 0.0
02 17:55 Calm 16.09 Fair CLR 16 -0.2 33% 75.87 0.0
02 17:35 SE 9 16.09 Fair CLR 15.5 0 35% 75.9 0.0
02 17:15 Calm 16.09 Fair CLR 15.5 -0.3 34% 75.9 0.0
02 16:35 E 7 16.09 Mostly Cloudy SCT070 BKN080 15.7 -0.4 34% 75.9 0.0
02 16:15 NE 6 16.09 Overcast OVC070 14.4 -1.5 34% 75.92 0.0
02 15:55 NE 9 16.09 Overcast OVC070 15.1 0.2 36% 75.92 0.0
02 15:35 N 11 16.09 Overcast BKN070 OVC080 14 0 39% 75.95 0.0
02 15:15 N 9 16.09 Overcast BKN070 OVC080 13.9 -1.1 36% 75.97 0.0
02 14:15 NE 13 16.09 Mostly Cloudy SCT060 BKN085 13.2 0.2 41% 76 0.0
02 13:55 NE 9 16.09 Overcast BKN060 OVC070 13 0.1 13.6 11.7 41% 76 0.0
02 13:35 NE 17 16.09 Overcast BKN060 OVC120 13.4 0.1 40% 76 0.0
02 13:15 N 11 16.09 Overcast BKN060 OVC120 13 -0.1 41% 76.02 0.0
02 12:55 N 13 G 26 16.09 Overcast OVC060 13.1 0.8 43% 76.05 0.0
02 12:35 NE 19 G 30 16.09 Overcast OVC050 13.4 1.3 44% 76.05 0.0
02 12:15 N 15 16.09 Overcast OVC050 12.8 1.7 47% 76.07 0.0
02 11:55 NE 13 16.09 Overcast OVC050 12.4 2.8 52% 76.07 0.0
02 11:35 NE 9 16.09 Light Drizzle OVC050 12 4.1 59% 76.1 0.0
02 11:15 NE 7 16.09 Light Rain OVC050 12 4.2 59% 76.12 0.0
02 10:55 NE 11 16.09 Overcast SCT029 OVC050 12.2 5 62% 76.1 0.0
02 10:35 N 9 16.09 Overcast OVC050 12.5 6 65% 76.07 0.0
02 10:15 N 11 16.09 Overcast OVC060 12.4 5.9 65% 76.07 0.0
02 09:55 NE 13 16.09 Overcast OVC060 12.1 6.2 67% 76.07 0.0
02 09:35 N 7 16.09 Overcast OVC070 12 6.6 70% 76.05 0.0
02 08:55 NE 11 16.09 Overcast SCT060 OVC070 11.8 6.9 72% 76.02 0.0
02 08:35 N 9 16.09 Overcast OVC060 11.8 7 73% 76.05 0.0
02 08:15 NE 11 16.09 Overcast SCT050 OVC070 12 7.1 72% 75.97 0.0
02 07:55 N 7 16.09 Overcast BKN050 OVC070 11.7 7 12 10.5 73% 76.02 0.0
02 07:35 N 13 16.09 Overcast SCT048 OVC070 11.8 7 73% 76 0.0
02 07:15 N 13 16.09 Overcast OVC070 11.7 7.2 74% 75.97 0.0
02 06:55 N 9 16.09 Mostly Cloudy BKN070 BKN120 11.6 7.3 75% 75.97 0.0
02 06:35 N 11 16.09 Partly Cloudy SCT120 11.7 7.5 76% 75.95 0.0
02 06:15 N 9 16.09 Mostly Cloudy BKN110 11.8 7.9 77% 75.95 0.0
02 05:55 N 9 16.09 Light Drizzle SCT042 SCT065 OVC095 12 8.3 78% 75.97 0.0
02 05:35 N 7 16.09 Overcast OVC042 12 8.5 79% 76 0.0
02 05:15 Calm 16.09 Overcast SCT042 BKN080 OVC100 11.2 9.1 87% 76.02 0.0
02 04:55 Calm 16.09 Overcast SCT040 SCT070 OVC090 11.7 8.8 83% 76.02 0.0
02 04:35 Calm 16.09 Overcast SCT038 BKN070 OVC080 11.5 9.1 85% 76 0.0
02 04:15 Calm 16.09 Overcast SCT028 OVC035 11.2 9.3 88% 75.97 0.0
02 03:55 Calm 16.09 Overcast OVC028 11.5 9.2 86% 75.95 0.0
02 03:35 Calm 16.09 Mostly Cloudy SCT028 BKN032 BKN110 11.3 8.9 85% 75.95 0.0
02 03:15 N 6 16.09 Partly Cloudy SCT030 SCT120 11.2 8.8 85% 75.95 0.0
02 02:55 N 7 16.09 Partly Cloudy SCT120 10.9 9 88% 75.92 0.0
Date Time (edt) Wind (kph) Vis. (km) Weather Sky Cond. Air Dwpt Max. Min. Relative Humidity Wind Chill (°C) Heat Index (°C) altimeter (cm) sea level (mb) 1 hr 3 hr 6 hr
6 hour
Temperature (ºC) Pressure Precipitation (cm)